Аэропорт: Талаги. Архангельск

ICAO: ULAA

METAR:
2019-09-21 15:30:00
ULAA 211530Z VRB01MPS 9999 SCT026CB 04/02 Q1001 R26/190065 NOSIG RMK QFE749/0999
METAR:
2019-09-21 14:00:00
TAF ULAA 211400Z 2115/2215 34003MPS 9999 BKN012CB TEMPO 2115/2121 32005G10MPS 3100 -SHRA BKN006 BKN011CB TEMPO 2121/2203 02005G10MPS 0700 +SHSNRA BKN003 BKN011CB TEMPO 2203/2215 36005G12MPS 3100 -SHSNRA BKN011CB